Time;durP1;ratioP1;P1;durP2;ratioP2;P2;SDS_P1;SDS_P2;PMS_P1;PMS_P2;Temp;Humidity;BMP_temperature;BMP_pressure;BME280_temperature;BME280_humidity;BME280_pressure;Samples;Min_cycle;Max_cycle;Signal;HPM_P1;HPM_P2
2022/01/16 00:00:40;;;;;;;38.07;19.90;;;3.80;99.90;;;;;;6213482;23;20635;-48
2022/01/16 00:05:53;;;;;;;37.73;20.07;;;3.80;99.90;;;;;;6213252;23;20412;-48
2022/01/16 00:08:19;;;;;;;40.73;21.43;;;3.70;1.00;;;;;;6213349;23;20950;-48
2022/01/16 00:10:45;;;;;;;41.93;20.00;;;3.60;1.00;;;;;;6213838;23;20208;-48
2022/01/16 00:13:10;;;;;;;49.23;19.67;;;3.70;95.40;;;;;;6213587;23;20138;-50
2022/01/16 00:15:36;;;;;;;40.63;19.40;;;3.70;1.00;;;;;;6213539;23;20177;-48
2022/01/16 00:20:32;;;;;;;38.53;19.03;;;3.60;99.90;;;;;;6213848;23;20554;-48
2022/01/16 00:22:58;;;;;;;34.77;19.10;;;3.50;1.00;;;;;;6213243;23;20370;-48
2022/01/16 00:25:24;;;;;;;43.07;20.60;;;3.50;99.90;;;;;;6213366;23;20415;-48
2022/01/16 00:27:50;;;;;;;39.40;20.13;;;3.50;99.90;;;;;;6213395;23;20429;-51
2022/01/16 00:30:17;;;;;;;43.80;20.37;;;3.60;1.00;;;;;;6213837;23;20449;-48
2022/01/16 00:32:44;;;;;;;36.63;18.77;;;3.60;1.00;;;;;;6213300;23;20401;-48
2022/01/16 00:35:11;;;;;;;35.97;18.87;;;3.60;1.00;;;;;;6213375;23;20381;-48
2022/01/16 00:37:38;;;;;;;39.03;19.80;;;3.50;99.90;;;;;;6213024;23;20666;-48
2022/01/16 00:40:04;;;;;;;37.87;19.40;;;3.50;1.00;;;;;;6213249;23;20382;-48
2022/01/16 00:42:30;;;;;;;38.37;19.53;;;3.40;99.90;;;;;;6213217;23;20370;-48
2022/01/16 00:44:55;;;;;;;39.93;20.37;;;3.50;83.80;;;;;;6212915;23;20373;-48
2022/01/16 00:47:21;;;;;;;41.57;19.73;;;3.40;1.00;;;;;;6212832;23;20157;-48
2022/01/16 00:49:47;;;;;;;37.87;19.63;;;3.40;1.00;;;;;;6213501;23;20182;-48
2022/01/16 00:52:12;;;;;;;40.93;19.87;;;3.50;1.00;;;;;;6213098;23;20224;-48
2022/01/16 00:54:38;;;;;;;42.27;19.90;;;3.50;99.90;;;;;;6212970;23;20200;-49
2022/01/16 00:57:05;;;;;;;35.33;19.13;;;3.40;99.90;;;;;;6213073;23;20690;-55
2022/01/16 00:59:30;;;;;;;42.93;21.17;;;3.50;99.90;;;;;;6213081;23;20294;-48
2022/01/16 01:01:56;;;;;;;37.63;19.37;;;3.50;1.00;;;;;;6213073;23;20370;-48
2022/01/16 01:04:22;;;;;;;38.83;19.87;;;3.50;1.00;;;;;;6213116;23;20241;-48
2022/01/16 01:06:49;;;;;;;36.90;19.60;;;3.40;1.00;;;;;;6213251;23;20151;-48
2022/01/16 01:09:15;;;;;;;37.90;19.73;;;3.40;99.90;;;;;;6212982;23;20174;-48
2022/01/16 01:11:43;;;;;;;47.83;22.43;;;3.40;99.90;;;;;;6212933;23;20808;-48
2022/01/16 01:19:24;;;;;;;41.37;20.30;;;3.20;1.00;;;;;;6223334;23;20369;-48
2022/01/16 01:21:50;;;;;;;39.23;19.00;;;3.30;99.90;;;;;;6212915;23;20800;-48
2022/01/16 01:24:16;;;;;;;37.63;19.20;;;3.20;1.00;;;;;;6213296;23;20369;-48
2022/01/16 01:26:52;;;;;;;38.20;19.97;;;3.10;1.00;;;;;;6212861;23;20199;-48
2022/01/16 01:29:20;;;;;;;37.73;18.90;;;3.10;1.00;;;;;;6212984;23;20181;-48
2022/01/16 01:31:46;;;;;;;39.17;19.27;;;3.00;25.20;;;;;;6213382;23;20370;-48
2022/01/16 01:34:12;;;;;;;38.23;19.67;;;3.10;99.90;;;;;;6213204;23;20433;-48
2022/01/16 01:36:37;;;;;;;38.33;20.47;;;3.10;1.00;;;;;;6213165;23;20358;-48
2022/01/16 01:39:03;;;;;;;41.97;19.57;;;3.20;1.00;;;;;;6212857;23;20150;-53
2022/01/16 01:41:29;;;;;;;39.37;21.07;;;3.30;1.00;;;;;;6212954;23;20205;-48
2022/01/16 01:52:07;;;;;;;39.87;20.63;;;3.50;42.90;;;;;;6212960;23;20384;-48
2022/01/16 01:54:33;;;;;;;46.33;21.90;;;3.50;1.00;;;;;;6213089;23;20465;-48
2022/01/16 01:57:00;;;;;;;37.83;20.30;;;3.40;99.90;;;;;;6186470;23;20159;-48
2022/01/16 01:59:26;;;;;;;47.70;23.33;;;3.40;1.00;;;;;;6212782;23;20222;-48
2022/01/16 02:01:52;;;;;;;48.10;22.83;;;3.20;1.00;;;;;;6213293;23;20413;-48
2022/01/16 02:04:17;;;;;;;53.80;23.53;;;3.20;99.90;;;;;;6212945;23;20378;-48
2022/01/16 02:06:44;;;;;;;51.73;23.40;;;3.10;99.90;;;;;;6213224;23;20580;-48
2022/01/16 02:09:10;;;;;;;49.43;23.97;;;3.10;1.00;;;;;;6214636;23;20186;-48
2022/01/16 02:11:36;;;;;;;56.53;26.87;;;3.00;99.90;;;;;;6214734;23;20420;-49
2022/01/16 02:14:21;;;;;;;50.80;23.77;;;3.00;8.80;;;;;;6214790;23;20381;-47
2022/01/16 02:28:12;;;;;;;53.07;25.23;;;2.90;99.90;;;;;;6214450;23;21055;-48
2022/01/16 02:36:08;;;;;;;61.60;27.40;;;2.80;1.00;;;;;;6214480;23;20365;-48
2022/01/16 02:39:23;;;;;;;65.77;29.23;;;2.90;1.00;;;;;;6214236;23;20400;-48
2022/01/16 02:41:49;;;;;;;61.07;25.83;;;2.90;1.00;;;;;;6214288;23;20354;-48
2022/01/16 02:44:23;;;;;;;57.83;26.73;;;3.00;1.00;;;;;;6214484;23;20384;-48
2022/01/16 02:46:49;;;;;;;60.20;27.67;;;3.00;11.00;;;;;;6188156;23;20194;-48
2022/01/16 02:49:33;;;;;;;64.93;28.13;;;2.90;1.00;;;;;;6214123;23;20754;-48
2022/01/16 02:52:03;;;;;;;59.07;27.00;;;2.90;23.90;;;;;;6214243;23;20370;-48
2022/01/16 02:54:34;;;;;;;61.67;26.83;;;2.90;68.80;;;;;;6214513;23;20424;-48
2022/01/16 02:57:00;;;;;;;64.53;28.00;;;2.90;30.50;;;;;;6214164;23;20365;-53
2022/01/16 02:59:25;;;;;;;59.77;26.43;;;2.90;56.10;;;;;;6214048;23;20441;-48
2022/01/16 03:01:51;;;;;;;59.07;25.20;;;2.90;35.30;;;;;;6214068;23;20153;-48
2022/01/16 03:04:17;;;;;;;64.40;27.23;;;2.90;95.30;;;;;;6214342;23;20631;-48
2022/01/16 03:06:43;;;;;;;66.07;28.70;;;3.00;99.90;;;;;;6214177;23;20189;-48
2022/01/16 03:09:10;;;;;;;69.60;28.63;;;2.90;99.90;;;;;;6214152;23;20814;-48
2022/01/16 03:11:39;;;;;;;73.90;28.90;;;2.90;99.90;;;;;;6213753;23;20139;-48
2022/01/16 03:14:11;;;;;;;59.23;26.17;;;2.90;99.90;;;;;;6214258;23;20390;-48
2022/01/16 03:16:37;;;;;;;68.33;28.73;;;3.00;99.90;;;;;;6213986;23;20384;-48
2022/01/16 03:21:57;;;;;;;66.57;26.67;;;2.90;99.90;;;;;;6214094;23;20820;-48
2022/01/16 03:24:34;;;;;;;67.97;28.60;;;2.90;99.90;;;;;;6214270;23;20370;-48
2022/01/16 03:27:02;;;;;;;77.43;29.63;;;3.00;99.90;;;;;;6213793;23;20464;-48
2022/01/16 03:29:29;;;;;;;63.80;27.30;;;3.00;99.90;;;;;;6213773;23;20750;-48
2022/01/16 03:31:55;;;;;;;74.50;29.10;;;3.00;99.90;;;;;;6213681;23;20408;-48
2022/01/16 03:34:21;;;;;;;72.93;27.40;;;3.00;99.90;;;;;;6214146;23;20362;-48
2022/01/16 03:36:47;;;;;;;77.83;28.00;;;3.00;99.90;;;;;;6213765;23;20381;-49
2022/01/16 03:39:13;;;;;;;92.57;31.70;;;3.00;99.90;;;;;;6213931;23;20159;-48
2022/01/16 03:41:39;;;;;;;66.70;27.77;;;3.00;99.90;;;;;;6213611;23;20154;-48
2022/01/16 03:44:06;;;;;;;79.97;30.40;;;3.00;99.90;;;;;;6214137;23;20159;-48
2022/01/16 03:46:40;;;;;;;70.47;28.50;;;3.00;99.90;;;;;;6213768;23;21029;-48
2022/01/16 03:49:10;;;;;;;72.40;28.23;;;3.00;99.90;;;;;;6187472;23;20428;-48
2022/01/16 03:51:36;;;;;;;70.87;29.37;;;3.00;99.90;;;;;;6213703;23;20369;-48
2022/01/16 03:54:03;;;;;;;74.00;28.10;;;3.00;99.90;;;;;;6213686;23;20374;-48
2022/01/16 03:56:29;;;;;;;64.63;26.37;;;3.10;99.90;;;;;;6186818;23;20381;-48
2022/01/16 03:58:54;;;;;;;60.60;24.83;;;3.10;99.90;;;;;;6213390;23;20970;-48
2022/01/16 04:01:20;;;;;;;58.90;23.40;;;3.10;99.90;;;;;;6213894;23;20519;-48
2022/01/16 04:03:46;;;;;;;64.10;24.87;;;3.10;99.90;;;;;;6213419;23;20143;-48
2022/01/16 04:06:11;;;;;;;62.73;22.30;;;3.10;99.90;;;;;;6213559;23;20163;-48
2022/01/16 04:08:37;;;;;;;56.23;24.33;;;3.10;99.90;;;;;;6213332;23;20182;-48
2022/01/16 04:11:03;;;;;;;59.77;23.47;;;3.00;99.90;;;;;;6213509;23;20166;-48
2022/01/16 04:13:31;;;;;;;60.07;25.33;;;3.00;99.90;;;;;;6213644;23;20147;-48
2022/01/16 04:15:56;;;;;;;64.10;24.40;;;3.00;99.90;;;;;;6213582;23;20162;-48
2022/01/16 04:18:22;;;;;;;70.43;25.80;;;3.00;99.90;;;;;;6213742;23;20851;-48
2022/01/16 04:20:47;;;;;;;64.03;25.13;;;3.00;99.90;;;;;;6213406;23;20589;-48
2022/01/16 04:23:13;;;;;;;65.97;25.77;;;3.10;99.90;;;;;;6213406;23;20151;-49
2022/01/16 04:25:38;;;;;;;70.93;27.30;;;3.10;99.90;;;;;;6213327;23;20158;-47
2022/01/16 04:28:05;;;;;;;69.03;25.70;;;3.00;99.90;;;;;;6213276;23;20178;-48
2022/01/16 04:30:31;;;;;;;63.93;24.83;;;3.00;99.90;;;;;;6213007;23;20158;-48
2022/01/16 04:32:57;;;;;;;59.60;23.40;;;3.00;99.90;;;;;;6213279;23;20459;-49
2022/01/16 04:35:23;;;;;;;61.17;25.27;;;3.10;99.90;;;;;;6213154;23;20393;-48
2022/01/16 04:37:49;;;;;;;63.53;24.90;;;3.10;99.90;;;;;;6213121;23;20212;-48
2022/01/16 04:40:15;;;;;;;66.23;26.40;;;3.10;99.90;;;;;;6213629;23;20428;-48
2022/01/16 04:45:26;;;;;;;65.53;25.90;;;3.10;99.90;;;;;;6213393;23;20420;-48
2022/01/16 04:47:52;;;;;;;62.07;24.33;;;3.10;99.90;;;;;;6213015;23;20366;-48
2022/01/16 04:50:21;;;;;;;58.93;23.40;;;3.10;99.90;;;;;;6213228;23;20382;-48
2022/01/16 04:52:48;;;;;;;67.10;26.10;;;3.10;99.90;;;;;;6213034;23;20365;-48
2022/01/16 04:55:15;;;;;;;68.30;25.50;;;3.00;99.90;;;;;;6213135;23;20394;-48
2022/01/16 04:57:41;;;;;;;62.03;22.97;;;3.00;99.90;;;;;;6213058;23;20888;-48
2022/01/16 05:00:12;;;;;;;64.33;26.53;;;3.00;99.90;;;;;;6213023;23;20440;-48
2022/01/16 05:02:38;;;;;;;61.17;25.03;;;3.00;99.90;;;;;;6212733;23;20386;-48
2022/01/16 05:05:04;;;;;;;66.80;25.50;;;3.00;99.90;;;;;;6213365;23;21001;-48
2022/01/16 05:07:30;;;;;;;63.30;24.70;;;3.00;99.90;;;;;;6213205;23;20143;-48
2022/01/16 05:09:55;;;;;;;61.10;25.20;;;3.00;99.90;;;;;;6213047;23;20436;-48
2022/01/16 05:12:33;;;;;;;56.20;22.70;;;3.10;99.90;;;;;;6212820;23;20192;-48
2022/01/16 05:17:44;;;;;;;64.37;24.43;;;3.10;99.90;;;;;;6212838;23;20415;-48
2022/01/16 05:20:10;;;;;;;64.60;25.03;;;3.10;99.90;;;;;;6213113;23;20445;-49
2022/01/16 05:22:36;;;;;;;65.80;25.63;;;3.10;99.90;;;;;;6212860;23;20146;-48
2022/01/16 05:25:04;;;;;;;66.10;25.03;;;3.10;99.90;;;;;;6213065;23;20385;-48
2022/01/16 05:27:30;;;;;;;62.83;23.90;;;3.20;99.90;;;;;;6213166;23;20142;-48
2022/01/16 05:29:55;;;;;;;68.53;25.23;;;3.10;99.90;;;;;;6212793;23;20510;-50
2022/01/16 05:32:21;;;;;;;73.37;27.60;;;3.10;99.90;;;;;;6212752;23;20649;-56
2022/01/16 05:34:46;;;;;;;70.10;25.53;;;3.10;99.90;;;;;;6213132;23;20158;-56
2022/01/16 05:37:12;;;;;;;67.73;24.00;;;3.00;99.90;;;;;;6213134;23;20205;-56
2022/01/16 05:39:39;;;;;;;69.53;24.90;;;3.00;99.90;;;;;;6213053;23;20550;-56
2022/01/16 05:42:05;;;;;;;62.93;23.87;;;3.10;99.90;;;;;;6214282;23;20158;-56
2022/01/16 05:44:31;;;;;;;65.20;23.90;;;3.10;99.90;;;;;;6214792;23;20825;-56
2022/01/16 05:47:02;;;;;;;65.60;24.20;;;3.10;99.90;;;;;;6214979;23;20366;-56
2022/01/16 05:49:27;;;;;;;62.80;23.43;;;3.20;99.90;;;;;;6215100;23;20656;-56
2022/01/16 05:51:53;;;;;;;63.47;23.17;;;3.10;99.90;;;;;;6214985;23;20446;-56
2022/01/16 05:54:18;;;;;;;61.53;23.93;;;3.10;99.90;;;;;;6214782;23;20147;-56
2022/01/16 05:56:44;;;;;;;61.87;23.60;;;3.10;99.90;;;;;;6214524;23;20158;-55
2022/01/16 05:59:09;;;;;;;61.03;24.37;;;3.10;99.90;;;;;;6214773;23;20201;-56
2022/01/16 06:01:36;;;;;;;63.90;23.70;;;3.10;99.90;;;;;;6214945;23;20150;-56
2022/01/16 06:04:02;;;;;;;63.33;23.70;;;3.10;99.90;;;;;;6214790;23;20161;-55
2022/01/16 06:06:28;;;;;;;64.07;23.53;;;3.10;99.90;;;;;;6214676;23;20374;-56
2022/01/16 06:08:53;;;;;;;57.80;22.93;;;3.10;99.90;;;;;;6214576;23;20662;-56
2022/01/16 06:11:19;;;;;;;65.70;23.57;;;3.20;99.90;;;;;;6214415;23;20238;-56
2022/01/16 06:13:44;;;;;;;57.70;23.37;;;3.20;99.90;;;;;;6188114;23;20213;-56
2022/01/16 06:16:10;;;;;;;58.10;22.73;;;3.20;99.90;;;;;;6214888;23;20157;-56
2022/01/16 06:18:35;;;;;;;68.40;23.03;;;3.20;99.90;;;;;;6214469;23;20142;-56
2022/01/16 06:21:01;;;;;;;61.23;22.90;;;3.20;99.90;;;;;;6214817;23;20154;-56
2022/01/16 06:23:26;;;;;;;68.67;24.07;;;3.20;99.90;;;;;;6214397;23;20209;-53
2022/01/16 06:25:54;;;;;;;67.13;24.23;;;3.20;99.90;;;;;;6214600;23;20490;-55
2022/01/16 06:28:21;;;;;;;63.30;24.50;;;3.20;99.90;;;;;;6187780;23;20217;-55
2022/01/16 06:30:48;;;;;;;62.23;24.20;;;3.20;99.90;;;;;;6214508;23;20699;-50
2022/01/16 06:33:13;;;;;;;64.83;24.93;;;3.20;99.90;;;;;;6214738;23;20376;-55
2022/01/16 06:35:39;;;;;;;69.10;24.67;;;3.20;99.90;;;;;;6214367;23;20460;-56
2022/01/16 06:38:04;;;;;;;63.07;22.80;;;3.20;99.90;;;;;;6214329;23;20524;-56
2022/01/16 06:40:30;;;;;;;59.07;24.37;;;3.20;99.90;;;;;;6214613;23;20459;-56
2022/01/16 06:42:56;;;;;;;58.83;23.00;;;3.30;99.90;;;;;;6214445;23;20609;-56
2022/01/16 06:45:21;;;;;;;53.47;22.10;;;3.30;99.90;;;;;;6214657;23;20156;-56
2022/01/16 06:47:47;;;;;;;65.03;23.80;;;3.40;99.90;;;;;;6213919;23;20240;-56
2022/01/16 06:50:13;;;;;;;69.07;25.47;;;3.40;99.90;;;;;;6214522;23;20143;-56
2022/01/16 06:52:38;;;;;;;62.40;23.97;;;3.40;99.90;;;;;;6213838;23;20222;-56
2022/01/16 06:55:04;;;;;;;63.93;24.50;;;3.40;99.90;;;;;;6214236;23;20162;-56
2022/01/16 06:57:30;;;;;;;68.23;24.60;;;3.40;99.90;;;;;;6213994;23;20221;-55
2022/01/16 06:59:56;;;;;;;65.57;24.17;;;3.40;99.90;;;;;;6214079;23;20476;-56
2022/01/16 07:02:22;;;;;;;61.37;22.53;;;3.30;99.90;;;;;;6213854;23;20161;-50
2022/01/16 07:04:48;;;;;;;68.23;24.57;;;3.30;99.90;;;;;;6214460;23;20143;-56
2022/01/16 07:07:14;;;;;;;67.70;26.03;;;3.30;99.90;;;;;;6214324;23;20393;-56
2022/01/16 07:09:39;;;;;;;67.50;26.50;;;3.20;99.90;;;;;;6214069;23;20428;-56
2022/01/16 07:12:06;;;;;;;62.57;23.80;;;3.20;99.90;;;;;;6214187;23;20169;-56
2022/01/16 07:14:31;;;;;;;64.87;23.73;;;3.20;99.90;;;;;;6214065;23;20158;-56
2022/01/16 07:16:57;;;;;;;68.40;24.33;;;3.20;99.90;;;;;;6214090;23;20688;-56
2022/01/16 07:19:23;;;;;;;61.20;23.40;;;3.20;99.90;;;;;;6214161;23;20143;-55
2022/01/16 07:21:48;;;;;;;67.33;25.10;;;3.30;99.90;;;;;;6214223;23;20514;-56
2022/01/16 07:24:16;;;;;;;56.27;21.93;;;3.20;99.90;;;;;;6213951;23;20167;-56
2022/01/16 07:26:43;;;;;;;68.27;24.93;;;3.30;99.90;;;;;;6213935;23;20209;-56
2022/01/16 07:29:08;;;;;;;60.63;24.80;;;3.20;99.90;;;;;;6213875;23;20471;-55
2022/01/16 07:31:34;;;;;;;81.70;25.43;;;3.20;99.90;;;;;;6214125;23;20480;-56
2022/01/16 07:34:00;;;;;;;75.70;25.60;;;3.20;99.90;;;;;;6187341;23;20765;-56
2022/01/16 07:36:25;;;;;;;67.13;23.97;;;3.20;99.90;;;;;;6213830;23;20197;-56
2022/01/16 07:38:50;;;;;;;74.30;26.13;;;3.10;99.90;;;;;;6213690;23;20170;-57
2022/01/16 07:41:16;;;;;;;76.83;28.07;;;3.10;99.90;;;;;;6213682;23;20173;-55
2022/01/16 07:43:42;;;;;;;78.33;27.10;;;3.10;99.90;;;;;;6213668;23;20147;-56
2022/01/16 07:46:07;;;;;;;70.17;24.53;;;3.00;99.90;;;;;;6214078;23;20154;-56
2022/01/16 07:48:33;;;;;;;80.00;27.70;;;3.00;99.90;;;;;;6213715;23;20170;-56
2022/01/16 07:50:58;;;;;;;75.90;27.30;;;3.00;99.90;;;;;;6213735;23;20143;-56
2022/01/16 07:53:24;;;;;;;71.23;26.73;;;3.10;99.90;;;;;;6186801;23;20166;-56
2022/01/16 07:55:49;;;;;;;77.47;27.60;;;3.10;99.90;;;;;;6213883;23;20217;-56
2022/01/16 07:58:15;;;;;;;73.67;27.30;;;3.10;99.90;;;;;;6213682;23;20170;-55
2022/01/16 08:00:40;;;;;;;79.97;26.87;;;3.10;99.90;;;;;;6213703;23;20581;-56
2022/01/16 08:03:06;;;;;;;86.93;27.90;;;3.10;99.90;;;;;;6213566;23;20229;-56
2022/01/16 08:05:34;;;;;;;76.53;27.77;;;3.10;99.90;;;;;;6213794;23;20178;-55
2022/01/16 08:07:59;;;;;;;78.63;28.07;;;3.10;99.90;;;;;;6213416;23;20451;-56
2022/01/16 08:10:25;;;;;;;84.03;29.70;;;3.10;99.90;;;;;;6214057;23;20480;-56
2022/01/16 08:12:50;;;;;;;97.53;32.77;;;3.10;99.90;;;;;;6213661;23;20157;-53
2022/01/16 08:15:16;;;;;;;92.63;33.13;;;3.10;99.90;;;;;;6213671;23;20181;-56
2022/01/16 08:17:42;;;;;;;96.93;32.80;;;3.10;99.90;;;;;;6213251;23;20475;-56
2022/01/16 08:20:08;;;;;;;93.53;30.53;;;3.10;99.90;;;;;;6213416;23;20201;-56
2022/01/16 08:22:34;;;;;;;95.97;32.20;;;3.10;99.90;;;;;;6213270;23;20162;-56
2022/01/16 08:25:00;;;;;;;105.67;33.33;;;3.00;99.90;;;;;;6213445;23;20738;-56
2022/01/16 08:27:25;;;;;;;117.13;33.30;;;3.00;99.90;;;;;;6213278;23;20385;-56
2022/01/16 08:29:51;;;;;;;111.50;34.03;;;3.10;99.90;;;;;;6213480;23;20181;-61
2022/01/16 08:32:17;;;;;;;106.40;32.67;;;3.10;99.90;;;;;;6213284;23;20200;-55
2022/01/16 08:34:42;;;;;;;104.50;31.67;;;3.00;99.90;;;;;;6212974;23;20519;-56
2022/01/16 08:37:08;;;;;;;101.83;32.80;;;3.00;99.90;;;;;;6212871;23;20167;-56
2022/01/16 08:39:33;;;;;;;105.03;32.10;;;3.00;99.90;;;;;;6213329;23;20331;-56
2022/01/16 08:41:59;;;;;;;112.53;33.23;;;3.00;99.90;;;;;;6213170;23;20165;-56
2022/01/16 08:44:25;;;;;;;108.57;31.17;;;3.00;99.90;;;;;;6213274;23;20222;-56
2022/01/16 08:46:51;;;;;;;108.03;32.60;;;3.10;99.90;;;;;;6213326;23;20161;-56
2022/01/16 08:49:16;;;;;;;108.47;33.57;;;3.10;99.90;;;;;;6213252;23;20181;-56
2022/01/16 08:51:42;;;;;;;110.63;34.73;;;3.10;99.90;;;;;;6213249;23;20369;-57
2022/01/16 08:54:08;;;;;;;115.37;36.63;;;3.00;99.90;;;;;;6213571;23;20157;-61
2022/01/16 08:56:33;;;;;;;103.30;32.17;;;3.00;99.90;;;;;;6212946;23;20197;-56
2022/01/16 08:58:59;;;;;;;110.50;32.07;;;3.00;99.90;;;;;;6212941;23;20198;-56
2022/01/16 09:01:25;;;;;;;119.27;36.17;;;3.00;99.90;;;;;;6186540;23;20220;-56
2022/01/16 09:03:51;;;;;;;106.57;32.93;;;3.00;99.90;;;;;;6213166;23;20146;-56
2022/01/16 09:06:17;;;;;;;105.73;32.80;;;3.00;99.90;;;;;;6213065;23;20438;-55
2022/01/16 09:08:43;;;;;;;117.23;35.50;;;3.00;99.90;;;;;;6213114;23;20170;-56
2022/01/16 09:11:08;;;;;;;128.70;36.47;;;3.00;99.90;;;;;;6213214;23;20858;-47
2022/01/16 09:13:35;;;;;;;112.87;34.10;;;3.00;99.90;;;;;;6213356;23;20162;-48
2022/01/16 09:16:00;;;;;;;109.30;34.50;;;3.00;99.90;;;;;;6214744;23;20142;-48
2022/01/16 09:18:26;;;;;;;119.10;34.10;;;3.00;99.90;;;;;;6216388;23;20955;-48
2022/01/16 09:20:53;;;;;;;117.03;36.17;;;3.00;99.90;;;;;;6216684;23;20216;-48
2022/01/16 09:23:19;;;;;;;120.07;36.00;;;3.00;99.90;;;;;;6216543;23;20365;-48
2022/01/16 09:25:45;;;;;;;113.70;33.50;;;3.00;99.90;;;;;;6216406;23;20423;-48
2022/01/16 09:28:10;;;;;;;115.63;36.17;;;3.10;99.90;;;;;;6216481;23;20536;-48
2022/01/16 09:30:36;;;;;;;115.80;34.80;;;3.10;99.90;;;;;;6216522;23;20150;-48
2022/01/16 09:33:02;;;;;;;130.63;36.90;;;3.10;99.90;;;;;;6216539;23;20146;-48
2022/01/16 09:35:28;;;;;;;118.50;35.50;;;3.10;99.90;;;;;;6216379;23;20159;-48
2022/01/16 09:37:54;;;;;;;118.37;33.83;;;3.10;99.90;;;;;;6216564;23;20420;-48
2022/01/16 09:40:21;;;;;;;121.50;34.43;;;3.10;99.90;;;;;;6216624;23;20404;-48
2022/01/16 09:42:48;;;;;;;113.70;33.60;;;3.10;99.90;;;;;;6216359;23;20435;-48
2022/01/16 09:45:16;;;;;;;116.07;33.97;;;3.10;99.90;;;;;;6189469;23;20393;-48
2022/01/16 09:47:44;;;;;;;106.10;31.57;;;3.10;99.90;;;;;;6216532;23;20370;-48
2022/01/16 09:50:10;;;;;;;110.30;35.10;;;3.10;99.90;;;;;;6216237;23;20424;-49
2022/01/16 09:52:41;;;;;;;124.43;35.40;;;3.20;99.90;;;;;;6216461;23;20393;-48
2022/01/16 09:55:08;;;;;;;115.27;34.43;;;3.20;99.90;;;;;;6216231;23;20381;-48
2022/01/16 09:57:34;;;;;;;115.47;33.40;;;3.20;99.90;;;;;;6216217;23;20370;-49
2022/01/16 10:00:00;;;;;;;121.50;36.37;;;3.20;99.90;;;;;;6216050;23;20448;-47
2022/01/16 10:02:26;;;;;;;115.70;33.80;;;3.20;99.90;;;;;;6216118;23;20369;-48
2022/01/16 10:04:53;;;;;;;112.90;33.70;;;3.30;99.90;;;;;;6216588;23;20390;-48
2022/01/16 10:07:19;;;;;;;124.93;35.60;;;3.30;99.90;;;;;;6216804;23;20138;-47
2022/01/16 10:10:03;;;;;;;116.87;34.93;;;3.30;99.90;;;;;;6216321;23;20420;-48
2022/01/16 10:12:28;;;;;;;114.97;32.73;;;3.30;99.90;;;;;;6189865;23;20385;-48
2022/01/16 10:14:54;;;;;;;117.93;34.33;;;3.30;99.90;;;;;;6216154;23;20679;-48
2022/01/16 10:17:22;;;;;;;107.47;34.20;;;3.30;99.90;;;;;;6215543;23;20213;-48
2022/01/16 10:20:03;;;;;;;115.30;35.27;;;3.30;99.90;;;;;;6216588;23;20150;-47
2022/01/16 10:22:45;;;;;;;102.43;30.77;;;3.40;99.90;;;;;;6215862;23;20440;-48
2022/01/16 10:25:12;;;;;;;119.77;34.70;;;3.40;99.90;;;;;;6216493;23;20377;-48
2022/01/16 10:27:39;;;;;;;110.70;34.37;;;3.40;99.90;;;;;;6215066;23;20444;-48
2022/01/16 10:30:07;;;;;;;111.03;34.00;;;3.40;99.90;;;;;;6214547;23;20417;-48
2022/01/16 10:32:37;;;;;;;102.90;32.33;;;3.40;99.90;;;;;;6213921;23;20428;-48
2022/01/16 10:35:19;;;;;;;114.77;32.63;;;3.50;99.90;;;;;;6214537;23;20386;-48
2022/01/16 10:37:48;;;;;;;110.97;32.70;;;3.50;99.90;;;;;;6214561;23;20793;-48
2022/01/16 10:40:18;;;;;;;116.53;34.03;;;3.50;99.90;;;;;;6214561;23;20385;-48
2022/01/16 10:42:57;;;;;;;100.87;32.03;;;3.50;99.90;;;;;;6214421;23;20373;-48
2022/01/16 10:45:25;;;;;;;101.70;30.57;;;3.50;99.90;;;;;;6214453;23;20377;-48
2022/01/16 10:47:54;;;;;;;91.90;31.83;;;3.50;99.90;;;;;;6213989;23;20969;-48
2022/01/16 10:50:25;;;;;;;98.03;30.63;;;3.60;99.90;;;;;;6214398;23;20366;-48
2022/01/16 10:53:02;;;;;;;101.30;31.60;;;3.60;99.90;;;;;;6214354;23;20354;-48
2022/01/16 10:55:41;;;;;;;100.57;29.93;;;3.70;99.90;;;;;;6214330;23;20755;-48
2022/01/16 10:58:07;;;;;;;91.93;29.13;;;3.60;99.90;;;;;;6214077;23;20373;-48
2022/01/16 11:00:33;;;;;;;92.40;29.80;;;3.70;99.90;;;;;;6214069;23;20425;-48
2022/01/16 11:03:01;;;;;;;90.23;28.70;;;3.70;99.90;;;;;;6214059;23;20158;-48
2022/01/16 11:05:27;;;;;;;98.30;31.10;;;3.70;99.90;;;;;;6213923;23;20369;-48
2022/01/16 11:08:00;;;;;;;87.10;28.33;;;3.70;99.90;;;;;;6213939;23;20878;-49
2022/01/16 11:10:27;;;;;;;80.73;27.60;;;3.70;99.90;;;;;;6214119;23;20378;-47
2022/01/16 11:12:56;;;;;;;84.77;28.40;;;3.80;99.90;;;;;;6213967;23;20698;-47
2022/01/16 11:15:22;;;;;;;99.00;34.15;;;3.70;99.90;;;;;;6207885;23;20712;-48
2022/01/16 11:17:48;;;;;;;93.20;29.57;;;3.70;99.90;;;;;;6183292;23;20194;-48
2022/01/16 11:20:15;;;;;;;83.30;29.30;;;3.70;99.90;;;;;;6210487;23;20384;-47
2022/01/16 11:25:38;;;;;;;83.70;28.37;;;3.80;99.90;;;;;;6167182;23;20396;-49
2022/01/16 11:28:07;;;;;;;76.00;28.30;;;3.80;99.90;;;;;;6210596;23;20382;-48
2022/01/16 11:30:35;;;;;;;82.70;28.40;;;3.80;99.90;;;;;;6209813;23;20715;-48
2022/01/16 11:33:01;;;;;;;77.97;26.80;;;3.80;99.90;;;;;;6210727;23;20369;-49
2022/01/16 11:35:28;;;;;;;76.57;26.13;;;3.80;99.90;;;;;;6210567;23;20373;-49
2022/01/16 11:37:55;;;;;;;77.80;26.30;;;3.90;99.90;;;;;;6183878;23;20173;-48
2022/01/16 11:40:30;;;;;;;75.43;26.90;;;3.80;99.90;;;;;;6183343;23;20385;-49
2022/01/16 11:43:30;;;;;;;74.90;27.70;;;3.80;99.90;;;;;;6210539;23;20796;-48
2022/01/16 11:46:05;;;;;;;73.63;26.50;;;3.80;99.90;;;;;;6209624;23;20374;-58
2022/01/16 11:48:38;;;;;;;87.07;29.13;;;3.80;99.90;;;;;;6210299;23;20725;-58
2022/01/16 11:51:06;;;;;;;90.07;26.70;;;3.80;99.90;;;;;;6210605;23;20366;-57
2022/01/16 11:53:57;;;;;;;78.80;28.37;;;3.90;99.90;;;;;;6210159;23;20713;-57
2022/01/16 11:56:37;;;;;;;79.27;28.07;;;3.90;99.90;;;;;;6210193;23;20411;-57
2022/01/16 11:59:15;;;;;;;86.93;29.80;;;3.90;99.90;;;;;;6209810;23;20753;-57
2022/01/16 12:01:57;;;;;;;80.80;28.60;;;3.90;99.90;;;;;;6210099;23;20354;-57
2022/01/16 12:04:28;;;;;;;74.47;26.70;;;4.00;99.90;;;;;;6210563;23;20377;-57
2022/01/16 12:07:12;;;;;;;84.07;27.07;;;4.00;99.90;;;;;;6209502;23;20354;-57
2022/01/16 12:09:57;;;;;;;86.33;26.30;;;4.00;99.90;;;;;;6209383;23;20424;-57
2022/01/16 12:12:23;;;;;;;93.23;27.93;;;4.00;99.90;;;;;;6209858;23;20851;-57
2022/01/16 12:14:52;;;;;;;89.00;28.90;;;4.10;99.90;;;;;;6209510;23;20374;-57
2022/01/16 12:17:43;;;;;;;75.23;28.13;;;4.10;99.90;;;;;;6209703;23;20453;-56
2022/01/16 12:20:12;;;;;;;76.43;27.33;;;4.10;99.90;;;;;;6209801;23;20432;-57
2022/01/16 12:22:46;;;;;;;88.50;30.43;;;4.10;99.90;;;;;;6209952;23;20397;-56
2022/01/16 12:25:20;;;;;;;88.63;29.63;;;4.10;99.90;;;;;;6209971;23;20353;-57
2022/01/16 12:27:54;;;;;;;82.43;30.40;;;4.20;99.90;;;;;;6210159;23;20859;-55
2022/01/16 12:30:31;;;;;;;92.00;29.00;;;4.20;99.90;;;;;;6210116;23;20425;-49
2022/01/16 12:33:14;;;;;;;102.30;33.57;;;4.20;99.90;;;;;;6209870;23;20415;-49
2022/01/16 12:35:48;;;;;;;88.43;29.30;;;4.20;99.90;;;;;;6208744;23;20366;-57
2022/01/16 12:38:25;;;;;;;88.50;28.47;;;4.20;99.90;;;;;;6209728;23;20415;-49
2022/01/16 12:41:07;;;;;;;81.97;29.40;;;4.30;99.90;;;;;;6209257;23;20370;-50
2022/01/16 12:43:40;;;;;;;101.90;32.13;;;4.20;99.90;;;;;;6210489;23;20404;-49
2022/01/16 12:46:08;;;;;;;94.67;29.77;;;4.30;99.90;;;;;;6210787;23;20804;-49
2022/01/16 12:48:41;;;;;;;99.77;33.00;;;4.40;99.90;;;;;;6209531;23;20512;-49
2022/01/16 12:51:07;;;;;;;91.23;32.07;;;4.40;99.90;;;;;;6209323;23;21071;-49
2022/01/16 12:53:41;;;;;;;89.50;32.10;;;4.40;99.90;;;;;;6209559;23;20389;-49
2022/01/16 12:56:31;;;;;;;95.70;30.80;;;4.40;99.90;;;;;;6208913;23;20830;-49
2022/01/16 12:59:11;;;;;;;99.00;32.47;;;4.40;99.90;;;;;;6210874;23;20432;-49
2022/01/16 13:01:45;;;;;;;103.43;32.70;;;4.40;99.90;;;;;;6209128;23;21123;-49
2022/01/16 13:04:21;;;;;;;95.30;32.03;;;4.50;99.90;;;;;;6209606;23;20381;-49
2022/01/16 13:06:47;;;;;;;116.37;34.80;;;4.50;99.90;;;;;;6210738;23;20372;-49
2022/01/16 13:09:14;;;;;;;94.57;33.43;;;4.50;99.90;;;;;;6210683;23;20424;-49
2022/01/16 13:11:41;;;;;;;88.63;32.50;;;4.60;99.90;;;;;;6209274;23;20370;-49
2022/01/16 13:14:11;;;;;;;100.20;34.03;;;4.60;99.90;;;;;;6209441;23;20462;-49
2022/01/16 13:16:42;;;;;;;106.30;34.40;;;4.60;99.90;;;;;;6210010;23;20366;-52
2022/01/16 13:19:15;;;;;;;103.03;33.60;;;4.70;99.90;;;;;;6210722;23;20469;-52
2022/01/16 13:21:44;;;;;;;92.40;34.33;;;4.70;99.90;;;;;;6209924;23;20915;-50
2022/01/16 13:24:23;;;;;;;78.63;32.90;;;4.80;99.90;;;;;;6210058;23;20366;-49
2022/01/16 13:26:48;;;;;;;95.27;34.67;;;4.80;99.90;;;;;;6209673;23;20377;-49